createdAt,value
2018-07-19T00:00:37.983Z,18.20
2018-07-19T00:03:06.705Z,18.30
2018-07-19T00:05:36.342Z,18.30
2018-07-19T00:08:06.333Z,18.20
2018-07-19T00:10:34.983Z,18.20
2018-07-19T00:13:04.189Z,18.20
2018-07-19T00:15:32.945Z,18.20
2018-07-19T00:18:01.628Z,18.20
2018-07-19T00:20:30.329Z,18.10
2018-07-19T00:22:59.969Z,18.00
2018-07-19T00:25:28.601Z,18.00
2018-07-19T00:27:58.412Z,18.00
2018-07-19T00:30:27.020Z,18.00
2018-07-19T00:32:55.729Z,18.00
2018-07-19T00:35:24.383Z,17.90
2018-07-19T00:37:55.032Z,18.00
2018-07-19T00:40:23.676Z,17.90
2018-07-19T00:42:52.395Z,18.00
2018-07-19T00:45:21.060Z,17.90
2018-07-19T00:47:50.768Z,17.90
2018-07-19T00:50:19.472Z,17.80
2018-07-19T00:52:48.162Z,17.70
2018-07-19T00:55:20.759Z,17.70
2018-07-19T00:57:52.205Z,17.60
2018-07-19T01:00:20.879Z,17.60
2018-07-19T01:02:49.509Z,17.60
2018-07-19T01:05:18.125Z,17.50
2018-07-19T01:07:47.108Z,17.50
2018-07-19T01:10:15.824Z,17.50
2018-07-19T01:12:44.507Z,17.50
2018-07-19T01:15:17.116Z,17.40
2018-07-19T01:17:45.755Z,17.50
2018-07-19T01:20:15.449Z,17.40
2018-07-19T01:22:44.197Z,17.30
2018-07-19T01:25:14.679Z,17.30
2018-07-19T01:27:43.321Z,17.30
2018-07-19T01:30:11.975Z,17.30
2018-07-19T01:32:41.812Z,17.20
2018-07-19T01:35:10.523Z,17.20
2018-07-19T01:37:39.236Z,17.20
2018-07-19T01:40:07.880Z,17.20
2018-07-19T01:42:40.057Z,17.10
2018-07-19T01:45:09.623Z,17.10
2018-07-19T01:47:38.499Z,17.20
2018-07-19T01:50:08.365Z,17.20
2018-07-19T01:52:37.155Z,17.10
2018-07-19T01:55:07.384Z,16.90
2018-07-19T01:57:37.240Z,16.90
2018-07-19T02:00:06.591Z,16.90
2018-07-19T02:02:35.311Z,16.80
2018-07-19T02:05:04.303Z,16.80
2018-07-19T02:07:33.106Z,16.70
2018-07-19T02:12:29.994Z,16.70
2018-07-19T02:14:58.790Z,16.70
2018-07-19T02:17:27.442Z,16.70
2018-07-19T02:19:56.382Z,16.60
2018-07-19T02:22:25.167Z,16.60
2018-07-19T02:24:54.829Z,16.50
2018-07-19T02:27:23.782Z,16.50
2018-07-19T02:29:53.383Z,16.40
2018-07-19T02:32:23.080Z,16.40
2018-07-19T02:34:51.798Z,16.40
2018-07-19T02:37:21.348Z,16.40
2018-07-19T02:39:50.096Z,16.50
2018-07-19T02:42:18.767Z,16.50
2018-07-19T02:44:47.392Z,16.40
2018-07-19T02:47:16.036Z,16.40
2018-07-19T02:52:12.973Z,16.40
2018-07-19T02:54:41.630Z,16.30
2018-07-19T02:57:10.302Z,16.30
2018-07-19T02:59:38.967Z,16.20
2018-07-19T03:02:08.653Z,16.20
2018-07-19T03:04:37.321Z,16.10
2018-07-19T03:07:07.005Z,16.20
2018-07-19T03:09:35.637Z,16.10
2018-07-19T03:12:04.302Z,16.20
2018-07-19T03:14:33.120Z,16.20
2018-07-19T03:17:01.744Z,16.20
2018-07-19T03:19:31.108Z,16.20
2018-07-19T03:21:59.802Z,16.30
2018-07-19T03:24:28.463Z,16.20
2018-07-19T03:26:57.074Z,16.10
2018-07-19T03:29:25.667Z,16.10
2018-07-19T03:31:54.240Z,16.00
2018-07-19T03:34:22.948Z,16.10
2018-07-19T03:36:51.578Z,16.20
2018-07-19T03:39:20.252Z,16.20
2018-07-19T03:41:48.981Z,16.30
2018-07-19T03:44:17.663Z,16.30
2018-07-19T03:46:46.431Z,16.30
2018-07-19T03:49:15.283Z,16.20
2018-07-19T03:51:44.947Z,16.10
2018-07-19T03:54:13.637Z,16.20
2018-07-19T03:56:44.344Z,16.10
2018-07-19T03:59:14.969Z,16.10
2018-07-19T04:01:43.710Z,16.10
2018-07-19T04:04:12.549Z,16.00
2018-07-19T04:06:42.803Z,16.10
2018-07-19T04:09:12.473Z,16.10
2018-07-19T04:11:42.131Z,16.10
2018-07-19T04:14:10.969Z,16.10
2018-07-19T04:16:39.694Z,16.20
2018-07-19T04:19:09.340Z,16.30
2018-07-19T04:24:06.186Z,16.50
2018-07-19T04:26:35.117Z,16.90
2018-07-19T04:29:03.771Z,17.40
2018-07-19T04:31:32.518Z,17.70
2018-07-19T04:34:01.173Z,18.20
2018-07-19T04:36:29.935Z,18.70
2018-07-19T04:38:58.610Z,19.10
2018-07-19T04:41:27.465Z,19.60
2018-07-19T04:43:56.148Z,20.00
2018-07-19T04:46:25.868Z,20.20
2018-07-19T04:48:54.583Z,20.60
2018-07-19T04:51:23.313Z,21.00
2018-07-19T04:53:51.989Z,21.30
2018-07-19T04:56:20.701Z,21.50
2018-07-19T04:58:49.283Z,21.70
2018-07-19T05:01:18.909Z,22.10
2018-07-19T05:03:52.598Z,22.30
2018-07-19T05:06:21.286Z,22.20
2018-07-19T05:08:50.976Z,22.30
2018-07-19T05:11:19.623Z,22.40
2018-07-19T05:16:16.704Z,22.30
2018-07-19T05:18:50.678Z,22.20
2018-07-19T05:23:49.705Z,22.60
2018-07-19T05:26:18.432Z,22.80
2018-07-19T05:28:47.223Z,22.60
2018-07-19T05:31:15.949Z,23.10
2018-07-19T05:33:44.579Z,23.40
2018-07-19T05:36:13.308Z,23.70
2018-07-19T05:38:41.915Z,23.70
2018-07-19T05:41:10.696Z,23.30
2018-07-19T05:43:41.416Z,22.70
2018-07-19T05:46:10.151Z,22.00
2018-07-19T05:48:40.939Z,21.40
2018-07-19T05:51:10.319Z,20.90
2018-07-19T05:53:40.980Z,20.70
2018-07-19T05:56:09.690Z,20.60
2018-07-19T05:58:38.354Z,20.50
2018-07-19T06:01:07.776Z,20.40
2018-07-19T06:03:36.426Z,20.40
2018-07-19T06:06:05.083Z,20.10
2018-07-19T06:08:33.763Z,20.10
2018-07-19T06:11:02.425Z,19.90
2018-07-19T06:13:32.177Z,19.70
2018-07-19T06:16:00.895Z,19.70
2018-07-19T06:18:29.597Z,19.70
2018-07-19T06:20:58.353Z,19.90
2018-07-19T06:23:28.012Z,20.00
2018-07-19T06:25:59.079Z,20.10
2018-07-19T06:28:28.716Z,20.20
2018-07-19T06:30:57.433Z,20.10
2018-07-19T06:33:27.151Z,20.20
2018-07-19T06:35:55.806Z,20.10
2018-07-19T06:38:25.157Z,20.40
2018-07-19T06:40:53.850Z,20.70
2018-07-19T06:43:22.516Z,21.40
2018-07-19T06:45:52.438Z,22.00
2018-07-19T06:48:21.079Z,22.00
2018-07-19T06:50:50.987Z,21.50
2018-07-19T06:53:19.675Z,22.10
2018-07-19T06:55:48.355Z,22.70
2018-07-19T06:58:16.974Z,22.90
2018-07-19T07:00:46.040Z,22.30
2018-07-19T07:03:14.792Z,22.70
2018-07-19T07:05:44.457Z,23.70
2018-07-19T07:08:13.241Z,23.30
2018-07-19T07:10:42.876Z,23.50
2018-07-19T07:13:12.322Z,23.60
2018-07-19T07:15:41.025Z,23.60
2018-07-19T07:18:09.779Z,23.50
2018-07-19T07:20:43.815Z,24.00
2018-07-19T07:23:14.431Z,23.70
2018-07-19T07:25:51.068Z,23.30
2018-07-19T07:28:21.203Z,23.50
2018-07-19T07:30:49.926Z,23.70
2018-07-19T07:33:20.604Z,24.00
2018-07-19T07:35:52.989Z,24.20
2018-07-19T07:38:21.637Z,23.40
2018-07-19T07:40:52.359Z,23.20
2018-07-19T07:43:21.006Z,22.80
2018-07-19T07:45:49.678Z,23.10
2018-07-19T07:48:18.374Z,22.90
2018-07-19T07:50:47.116Z,23.40
2018-07-19T07:53:16.188Z,23.60
2018-07-19T07:55:46.043Z,23.50
2018-07-19T07:58:18.611Z,22.90
2018-07-19T08:00:48.321Z,22.90
2018-07-19T08:03:19.058Z,23.00
2018-07-19T08:05:47.793Z,23.10
2018-07-19T08:08:16.759Z,23.40
2018-07-19T08:10:49.259Z,24.00
2018-07-19T08:13:18.904Z,24.20
2018-07-19T08:15:48.582Z,23.80
2018-07-19T08:18:17.227Z,23.50
2018-07-19T08:20:45.965Z,23.90
2018-07-19T08:23:15.644Z,23.60
2018-07-19T08:25:46.013Z,23.50
2018-07-19T08:28:15.428Z,23.90
2018-07-19T08:30:44.411Z,23.90
2018-07-19T08:33:13.527Z,24.00
2018-07-19T08:35:48.284Z,23.40
2018-07-19T08:40:45.370Z,23.00
2018-07-19T08:43:14.084Z,23.20
2018-07-19T08:45:43.050Z,23.50
2018-07-19T08:48:11.794Z,23.70
2018-07-19T08:50:40.654Z,24.30
2018-07-19T08:53:10.569Z,24.10
2018-07-19T08:55:39.325Z,23.50
2018-07-19T08:58:09.641Z,23.60
2018-07-19T09:00:39.610Z,23.60
2018-07-19T09:03:09.794Z,23.60
2018-07-19T09:05:39.422Z,23.90
2018-07-19T09:08:10.970Z,23.60
2018-07-19T09:10:41.174Z,23.90
2018-07-19T09:13:10.323Z,24.10
2018-07-19T09:15:40.227Z,24.10
2018-07-19T09:18:11.137Z,24.60
2018-07-19T09:23:10.456Z,24.00
2018-07-19T09:25:40.478Z,24.40
2018-07-19T09:28:09.300Z,24.70
2018-07-19T09:30:38.194Z,24.60
2018-07-19T09:33:06.986Z,24.60
2018-07-19T09:35:35.798Z,24.80
2018-07-19T09:38:12.221Z,24.80
2018-07-19T09:40:42.463Z,24.90
2018-07-19T09:43:11.315Z,24.70
2018-07-19T09:45:43.505Z,24.50
2018-07-19T09:48:12.674Z,24.50
2018-07-19T09:50:41.698Z,25.20
2018-07-19T09:53:11.453Z,25.60
2018-07-19T09:55:40.170Z,25.30
2018-07-19T09:58:08.788Z,25.10
2018-07-19T10:00:42.929Z,25.10
2018-07-19T10:03:11.861Z,24.80
2018-07-19T10:05:40.686Z,25.10
2018-07-19T10:08:11.306Z,25.00
2018-07-19T10:10:43.910Z,24.90
2018-07-19T10:13:16.649Z,24.80
2018-07-19T10:15:45.287Z,25.30
2018-07-19T10:18:17.309Z,25.70
2018-07-19T10:20:48.085Z,25.40
2018-07-19T10:23:16.857Z,25.40
2018-07-19T10:25:45.583Z,25.40
2018-07-19T10:28:16.502Z,25.60
2018-07-19T10:30:47.116Z,25.90
2018-07-19T10:33:16.810Z,26.40
2018-07-19T10:35:45.512Z,26.20
2018-07-19T10:38:15.426Z,26.20
2018-07-19T10:40:44.116Z,25.40
2018-07-19T10:43:12.873Z,25.70
2018-07-19T10:45:43.636Z,26.30
2018-07-19T10:48:13.454Z,26.40
2018-07-19T10:50:42.222Z,26.10
2018-07-19T10:53:10.960Z,26.20
2018-07-19T10:55:39.632Z,26.00
2018-07-19T10:58:08.185Z,26.00
2018-07-19T11:00:37.999Z,25.80
2018-07-19T11:03:07.014Z,25.90
2018-07-19T11:05:35.981Z,26.10
2018-07-19T11:08:05.708Z,26.30
2018-07-19T11:10:35.470Z,26.60
2018-07-19T11:13:04.416Z,26.70
2018-07-19T11:15:34.107Z,26.50
2018-07-19T11:18:02.919Z,26.30
2018-07-19T11:20:32.627Z,26.40
2018-07-19T11:23:01.367Z,26.60
2018-07-19T11:25:34.228Z,26.50
2018-07-19T11:28:02.992Z,26.50
2018-07-19T11:30:31.596Z,26.40
2018-07-19T11:33:01.483Z,26.20
2018-07-19T11:35:34.208Z,26.40
2018-07-19T11:38:03.760Z,26.60
2018-07-19T11:40:34.069Z,26.90
2018-07-19T11:43:04.737Z,27.00
2018-07-19T11:45:33.457Z,27.00
2018-07-19T11:48:02.300Z,26.90
2018-07-19T11:50:31.043Z,27.00
2018-07-19T11:52:59.701Z,26.60
2018-07-19T11:55:29.078Z,26.80
2018-07-19T11:57:58.776Z,27.30
2018-07-19T12:00:27.981Z,27.60
2018-07-19T12:03:00.872Z,27.70
2018-07-19T12:05:29.562Z,27.50
2018-07-19T12:07:58.175Z,27.50
2018-07-19T12:10:26.760Z,27.40
2018-07-19T12:12:55.372Z,27.60
2018-07-19T12:15:24.090Z,27.30
2018-07-19T12:17:57.912Z,27.60
2018-07-19T12:20:26.507Z,27.20
2018-07-19T12:22:56.153Z,27.10
2018-07-19T12:25:24.730Z,27.30
2018-07-19T12:27:53.305Z,27.30
2018-07-19T12:30:22.596Z,27.60
2018-07-19T12:32:51.265Z,27.50
2018-07-19T12:35:22.640Z,27.40
2018-07-19T12:38:00.150Z,27.30
2018-07-19T12:40:32.502Z,27.30
2018-07-19T12:43:07.924Z,27.30
2018-07-19T12:45:37.751Z,27.40
2018-07-19T12:48:07.205Z,27.40
2018-07-19T12:50:35.849Z,27.60
2018-07-19T12:53:05.550Z,27.90
2018-07-19T12:55:34.262Z,28.20
2018-07-19T12:58:02.884Z,27.90
2018-07-19T13:00:31.606Z,27.90
2018-07-19T13:03:01.147Z,27.90
2018-07-19T13:05:29.761Z,28.00
2018-07-19T13:07:58.367Z,27.80
2018-07-19T13:10:26.913Z,27.80
2018-07-19T13:12:55.899Z,27.70
2018-07-19T13:15:27.128Z,27.80
2018-07-19T13:17:55.737Z,27.70
2018-07-19T13:20:29.334Z,27.80
2018-07-19T13:22:57.899Z,28.10
2018-07-19T13:25:27.514Z,28.20
2018-07-19T13:27:56.078Z,28.30
2018-07-19T13:30:24.803Z,28.30
2018-07-19T13:32:53.393Z,28.10
2018-07-19T13:35:22.997Z,28.10
2018-07-19T13:37:51.558Z,27.90
2018-07-19T13:40:20.194Z,27.70
2018-07-19T13:42:48.845Z,27.60
2018-07-19T13:45:17.483Z,27.70
2018-07-19T13:50:14.397Z,28.10
2018-07-19T13:52:54.211Z,27.70
2018-07-19T13:55:22.786Z,28.20
2018-07-19T13:57:51.400Z,28.20
2018-07-19T14:00:20.056Z,28.10
2018-07-19T14:02:49.702Z,28.20
2018-07-19T14:05:19.258Z,28.20
2018-07-19T14:07:51.763Z,28.20
2018-07-19T14:10:22.811Z,28.30
2018-07-19T14:12:51.383Z,28.20
2018-07-19T14:15:21.030Z,28.20
2018-07-19T14:17:49.594Z,28.40
2018-07-19T14:20:18.180Z,28.30
2018-07-19T14:22:46.820Z,28.60
2018-07-19T14:25:15.378Z,28.60
2018-07-19T14:27:43.965Z,28.80
2018-07-19T14:30:12.621Z,28.40
2018-07-19T14:32:41.214Z,28.30
2018-07-19T14:35:16.317Z,28.30
2018-07-19T14:37:44.891Z,28.50
2018-07-19T14:40:13.428Z,28.40
2018-07-19T14:45:17.226Z,28.40
2018-07-19T14:47:47.795Z,28.60
2018-07-19T14:50:17.509Z,28.60
2018-07-19T14:52:52.343Z,28.90
2018-07-19T14:55:20.931Z,28.80
2018-07-19T14:57:49.560Z,29.00
2018-07-19T15:00:18.207Z,28.90
2018-07-19T15:02:46.821Z,28.70
2018-07-19T15:05:15.590Z,28.70
2018-07-19T15:10:13.041Z,28.60
2018-07-19T15:12:41.631Z,28.70
2018-07-19T15:15:16.415Z,28.70
2018-07-19T15:17:45.128Z,28.60
2018-07-19T15:20:14.489Z,28.80
2018-07-19T15:22:48.024Z,28.90
2018-07-19T15:25:17.684Z,28.90
2018-07-19T15:27:48.241Z,28.60
2018-07-19T15:30:18.895Z,28.50
2018-07-19T15:32:47.499Z,28.60
2018-07-19T15:35:16.160Z,28.80
2018-07-19T15:37:44.886Z,28.80
2018-07-19T15:40:13.494Z,28.50
2018-07-19T15:42:42.139Z,28.70
2018-07-19T15:45:10.751Z,28.70
2018-07-19T15:47:39.307Z,28.70
2018-07-19T15:50:08.267Z,28.80
2018-07-19T15:52:37.897Z,28.60
2018-07-19T15:55:06.617Z,28.50
2018-07-19T15:57:35.162Z,28.60
2018-07-19T16:00:03.786Z,28.60
2018-07-19T16:02:33.380Z,28.60
2018-07-19T16:05:01.939Z,28.40
2018-07-19T16:07:30.597Z,28.30
2018-07-19T16:09:59.141Z,28.20
2018-07-19T16:12:27.837Z,28.20
2018-07-19T16:14:58.505Z,28.40
2018-07-19T16:17:27.175Z,28.40
2018-07-19T16:19:55.770Z,28.20
2018-07-19T16:22:24.598Z,28.10
2018-07-19T16:24:53.208Z,28.20
2018-07-19T16:27:22.856Z,28.30
2018-07-19T16:29:51.523Z,28.30
2018-07-19T16:32:21.953Z,28.30
2018-07-19T16:34:51.539Z,28.30
2018-07-19T16:37:20.165Z,28.20
2018-07-19T16:39:48.804Z,28.20
2018-07-19T16:42:19.482Z,28.20
2018-07-19T16:44:48.089Z,28.00
2018-07-19T16:47:18.675Z,28.00
2018-07-19T16:49:47.251Z,28.00
2018-07-19T16:52:15.886Z,28.00
2018-07-19T16:54:44.672Z,28.20
2018-07-19T16:57:13.333Z,28.00
2018-07-19T16:59:41.974Z,28.00
2018-07-19T17:02:10.659Z,27.90
2018-07-19T17:04:39.308Z,27.80
2018-07-19T17:07:08.048Z,27.70
2018-07-19T17:09:36.745Z,27.60
2018-07-19T17:12:05.594Z,27.60
2018-07-19T17:14:35.334Z,27.70
2018-07-19T17:17:04.147Z,27.70
2018-07-19T17:19:37.684Z,27.80
2018-07-19T17:22:06.458Z,27.80
2018-07-19T17:24:35.277Z,28.20
2018-07-19T17:27:04.056Z,28.10
2018-07-19T17:29:32.828Z,28.20
2018-07-19T17:32:09.135Z,28.00
2018-07-19T17:37:26.349Z,28.20
2018-07-19T17:39:56.009Z,28.00
2018-07-19T17:42:24.731Z,28.10
2018-07-19T17:44:53.637Z,28.00
2018-07-19T17:47:22.311Z,27.80
2018-07-19T17:50:00.934Z,27.60
2018-07-19T17:52:29.648Z,27.60
2018-07-19T17:54:59.287Z,27.70
2018-07-19T17:57:28.883Z,27.70
2018-07-19T17:59:57.603Z,27.80
2018-07-19T18:02:26.270Z,28.00
2018-07-19T18:04:55.944Z,28.30
2018-07-19T18:07:24.608Z,28.40
2018-07-19T18:09:53.244Z,28.30
2018-07-19T18:12:23.930Z,28.40
2018-07-19T18:14:53.610Z,28.10
2018-07-19T18:17:22.317Z,27.80
2018-07-19T18:19:51.123Z,27.50
2018-07-19T18:22:19.898Z,27.20
2018-07-19T18:24:49.035Z,27.00
2018-07-19T18:27:17.946Z,26.80
2018-07-19T18:29:46.922Z,26.60
2018-07-19T18:32:15.642Z,26.60
2018-07-19T18:34:44.534Z,26.50
2018-07-19T18:37:13.295Z,26.40
2018-07-19T18:39:42.040Z,26.40
2018-07-19T18:42:11.067Z,26.40
2018-07-19T18:44:39.775Z,26.20
2018-07-19T18:47:08.476Z,26.00
2018-07-19T18:49:37.313Z,25.80
2018-07-19T18:52:06.032Z,25.60
2018-07-19T18:54:34.774Z,25.40
2018-07-19T18:57:03.493Z,25.20
2018-07-19T18:59:32.179Z,25.00
2018-07-19T19:02:00.879Z,24.80
2018-07-19T19:04:30.463Z,24.60
2018-07-19T19:06:59.115Z,24.40
2018-07-19T19:09:28.912Z,24.10
2018-07-19T19:11:58.573Z,23.90
2018-07-19T19:14:31.140Z,23.80
2018-07-19T19:16:59.822Z,23.60
2018-07-19T19:19:28.511Z,23.40
2018-07-19T19:21:57.271Z,23.30
2018-07-19T19:24:26.019Z,23.20
2018-07-19T19:26:54.771Z,23.10
2018-07-19T19:29:23.424Z,23.10
2018-07-19T19:31:52.126Z,23.10
2018-07-19T19:34:21.824Z,23.00
2018-07-19T19:36:50.559Z,22.90
2018-07-19T19:39:19.491Z,22.70
2018-07-19T19:41:52.077Z,22.70
2018-07-19T19:44:20.833Z,22.60
2018-07-19T19:46:51.483Z,22.60
2018-07-19T19:49:23.728Z,22.50
2018-07-19T19:51:53.377Z,22.40
2018-07-19T19:54:22.212Z,22.30
2018-07-19T19:56:51.078Z,22.30
2018-07-19T19:59:19.851Z,22.30
2018-07-19T20:01:50.489Z,22.40
2018-07-19T20:04:20.321Z,22.40
2018-07-19T20:06:49.369Z,22.30
2018-07-19T20:09:18.164Z,22.30
2018-07-19T20:11:47.868Z,22.10
2018-07-19T20:14:17.741Z,22.10
2018-07-19T20:16:47.402Z,22.20
2018-07-19T20:19:16.173Z,22.20
2018-07-19T20:21:45.860Z,22.40
2018-07-19T20:24:14.617Z,22.40
2018-07-19T20:26:43.337Z,22.20
2018-07-19T20:29:12.064Z,22.20
2018-07-19T20:31:40.688Z,22.20
2018-07-19T20:34:10.605Z,22.10
2018-07-19T20:36:39.340Z,22.00
2018-07-19T20:41:37.846Z,22.00
2018-07-19T20:44:07.534Z,22.00
2018-07-19T20:46:37.255Z,22.00
2018-07-19T20:49:05.982Z,22.10
2018-07-19T20:51:35.655Z,22.10
2018-07-19T20:54:05.366Z,22.10
2018-07-19T20:56:35.044Z,22.10
2018-07-19T20:59:03.706Z,22.10
2018-07-19T21:01:32.398Z,22.10
2018-07-19T21:04:01.052Z,22.10
2018-07-19T21:06:29.661Z,22.10
2018-07-19T21:08:58.415Z,21.90
2018-07-19T21:11:27.121Z,21.90
2018-07-19T21:13:55.768Z,21.90
2018-07-19T21:16:26.563Z,21.90
2018-07-19T21:18:56.243Z,21.90
2018-07-19T21:21:24.993Z,21.80
2018-07-19T21:23:53.632Z,21.80
2018-07-19T21:26:22.432Z,21.70
2018-07-19T21:28:51.065Z,21.70
2018-07-19T21:31:19.929Z,21.70
2018-07-19T21:33:49.588Z,21.60
2018-07-19T21:36:18.418Z,21.60
2018-07-19T21:38:47.080Z,21.50
2018-07-19T21:41:15.848Z,21.40
2018-07-19T21:43:45.355Z,21.40
2018-07-19T21:46:14.092Z,21.30
2018-07-19T21:48:43.543Z,21.30
2018-07-19T21:51:12.907Z,21.20
2018-07-19T21:53:41.660Z,21.10
2018-07-19T21:56:12.322Z,21.00
2018-07-19T21:58:41.992Z,21.00
2018-07-19T22:03:43.198Z,20.90
2018-07-19T22:06:13.889Z,20.90
2018-07-19T22:08:42.561Z,20.90
2018-07-19T22:11:11.243Z,20.90
2018-07-19T22:13:41.869Z,20.90
2018-07-19T22:16:12.596Z,20.80
2018-07-19T22:18:42.192Z,20.80
2018-07-19T22:21:10.809Z,20.70
2018-07-19T22:23:40.551Z,20.60
2018-07-19T22:26:09.235Z,20.50
2018-07-19T22:31:07.319Z,20.40
2018-07-19T22:33:36.015Z,20.30
2018-07-19T22:36:04.756Z,20.30
2018-07-19T22:38:33.516Z,20.30
2018-07-19T22:41:02.114Z,20.20
2018-07-19T22:43:30.824Z,20.30
2018-07-19T22:45:59.427Z,20.30
2018-07-19T22:48:28.060Z,20.20
2018-07-19T22:50:57.653Z,20.20
2018-07-19T22:53:26.316Z,20.10
2018-07-19T22:55:55.916Z,20.10
2018-07-19T22:58:25.550Z,20.10
2018-07-19T23:00:55.174Z,20.00
2018-07-19T23:03:25.843Z,19.90
2018-07-19T23:08:22.732Z,19.70
2018-07-19T23:10:52.853Z,19.60
2018-07-19T23:13:22.669Z,19.70
2018-07-19T23:15:51.310Z,19.70
2018-07-19T23:18:20.897Z,19.70
2018-07-19T23:20:49.552Z,19.60
2018-07-19T23:23:19.158Z,19.60
2018-07-19T23:25:51.199Z,19.60
2018-07-19T23:28:19.867Z,19.50
2018-07-19T23:30:48.569Z,19.40
2018-07-19T23:33:17.871Z,19.40
2018-07-19T23:36:22.173Z,19.40
2018-07-19T23:39:02.846Z,19.30
2018-07-19T23:41:37.550Z,19.30
2018-07-19T23:44:20.194Z,19.30
2018-07-19T23:46:56.729Z,19.20
2018-07-19T23:49:25.349Z,19.10
2018-07-19T23:51:53.969Z,19.20
2018-07-19T23:54:22.803Z,19.20
2018-07-19T23:56:51.366Z,19.10
2018-07-19T23:59:20.024Z,19.10
